sensor_id;sensor_type;location;lat;lon;timestamp;pressure;altitude;pressure_sealevel;temperature;humidity
15914;BME280;8055;51.930;8.840;2024-02-26T00:01:48;75959.19;;;-145.72;100.00
15914;BME280;8055;51.930;8.840;2024-02-26T00:04:14;75967.47;;;-145.72;100.00
15914;BME280;8055;51.930;8.840;2024-02-26T00:06:39;75965.41;;;-145.72;100.00
15914;BME280;8055;51.930;8.840;2024-02-26T00:09:08;75965.41;;;-145.72;100.00
15914;BME280;8055;51.930;8.840;2024-02-26T00:11:35;75961.25;;;-145.72;100.00
15914;BME280;8055;51.930;8.840;2024-02-26T00:14:01;75957.13;;;-145.72;100.00
15914;BME280;8055;51.930;8.840;2024-02-26T00:16:26;75953.00;;;-145.72;100.00
15914;BME280;8055;51.930;8.840;2024-02-26T00:18:52;75944.72;;;-145.72;100.00
15914;BME280;8055;51.930;8.840;2024-02-26T00:21:17;75940.56;;;-145.72;100.00
15914;BME280;8055;51.930;8.840;2024-02-26T00:23:43;75942.63;;;-145.72;100.00
15914;BME280;8055;51.930;8.840;2024-02-26T00:26:08;75938.50;;;-145.72;100.00
15914;BME280;8055;51.930;8.840;2024-02-26T00:28:36;75944.72;;;-145.72;100.00
15914;BME280;8055;51.930;8.840;2024-02-26T00:31:01;75940.56;;;-145.72;100.00
15914;BME280;8055;51.930;8.840;2024-02-26T00:33:27;75942.63;;;-145.72;100.00
15914;BME280;8055;51.930;8.840;2024-02-26T00:35:53;75936.44;;;-145.72;100.00
15914;BME280;8055;51.930;8.840;2024-02-26T00:38:18;75934.38;;;-145.72;100.00
15914;BME280;8055;51.930;8.840;2024-02-26T00:40:44;75942.63;;;-145.72;100.00
15914;BME280;8055;51.930;8.840;2024-02-26T00:43:09;75940.56;;;-145.72;100.00
15914;BME280;8055;51.930;8.840;2024-02-26T00:45:34;75944.72;;;-145.72;100.00
15914;BME280;8055;51.930;8.840;2024-02-26T00:48:00;75932.28;;;-145.72;100.00
15914;BME280;8055;51.930;8.840;2024-02-26T00:50:30;75936.44;;;-145.72;100.00
15914;BME280;8055;51.930;8.840;2024-02-26T00:52:55;75940.56;;;-145.72;100.00
15914;BME280;8055;51.930;8.840;2024-02-26T00:55:20;75938.50;;;-145.72;100.00
15914;BME280;8055;51.930;8.840;2024-02-26T00:57:45;75938.50;;;-145.72;100.00
15914;BME280;8055;51.930;8.840;2024-02-26T01:00:11;75938.50;;;-145.72;100.00
15914;BME280;8055;51.930;8.840;2024-02-26T01:02:37;75934.38;;;-145.72;100.00
15914;BME280;8055;51.930;8.840;2024-02-26T01:05:04;75940.56;;;-145.72;100.00
15914;BME280;8055;51.930;8.840;2024-02-26T01:07:31;75936.44;;;-145.72;100.00
15914;BME280;8055;51.930;8.840;2024-02-26T01:10:03;75936.44;;;-145.72;100.00
15914;BME280;8055;51.930;8.840;2024-02-26T01:12:29;75940.56;;;-145.72;100.00
15914;BME280;8055;51.930;8.840;2024-02-26T01:14:55;75936.44;;;-145.72;100.00
15914;BME280;8055;51.930;8.840;2024-02-26T01:17:20;75936.44;;;-145.72;100.00
15914;BME280;8055;51.930;8.840;2024-02-26T01:19:45;75936.44;;;-145.72;100.00
15914;BME280;8055;51.930;8.840;2024-02-26T01:22:11;75930.22;;;-145.72;100.00
15914;BME280;8055;51.930;8.840;2024-02-26T01:24:36;75926.09;;;-145.72;100.00
15914;BME280;8055;51.930;8.840;2024-02-26T01:27:01;75932.28;;;-145.72;100.00
15914;BME280;8055;51.930;8.840;2024-02-26T01:29:27;75932.28;;;-145.72;100.00
15914;BME280;8055;51.930;8.840;2024-02-26T01:31:52;75938.50;;;-145.72;100.00
15914;BME280;8055;51.930;8.840;2024-02-26T01:34:17;75938.50;;;-145.72;100.00
15914;BME280;8055;51.930;8.840;2024-02-26T01:36:44;75936.44;;;-145.72;100.00
15914;BME280;8055;51.930;8.840;2024-02-26T01:39:09;75936.44;;;-145.72;100.00
15914;BME280;8055;51.930;8.840;2024-02-26T01:41:38;75932.28;;;-145.72;100.00
15914;BME280;8055;51.930;8.840;2024-02-26T01:44:04;75934.38;;;-145.72;100.00
15914;BME280;8055;51.930;8.840;2024-02-26T01:46:30;75930.22;;;-145.72;100.00
15914;BME280;8055;51.930;8.840;2024-02-26T01:48:56;75936.44;;;-145.72;100.00
15914;BME280;8055;51.930;8.840;2024-02-26T01:51:22;75928.16;;;-145.72;100.00
15914;BME280;8055;51.930;8.840;2024-02-26T01:53:48;75928.16;;;-145.72;100.00
15914;BME280;8055;51.930;8.840;2024-02-26T01:56:14;75928.16;;;-145.72;100.00
15914;BME280;8055;51.930;8.840;2024-02-26T01:58:42;75932.28;;;-145.72;100.00
15914;BME280;8055;51.930;8.840;2024-02-26T02:01:08;75928.16;;;-145.72;100.00
15914;BME280;8055;51.930;8.840;2024-02-26T02:03:33;75938.50;;;-145.72;100.00
15914;BME280;8055;51.930;8.840;2024-02-26T02:05:59;75928.16;;;-145.72;100.00
15914;BME280;8055;51.930;8.840;2024-02-26T02:08:24;75917.81;;;-145.72;100.00
15914;BME280;8055;51.930;8.840;2024-02-26T02:10:50;75919.88;;;-145.72;100.00
15914;BME280;8055;51.930;8.840;2024-02-26T02:13:16;75924.03;;;-145.72;100.00
15914;BME280;8055;51.930;8.840;2024-02-26T02:15:41;75936.44;;;-145.72;100.00
15914;BME280;8055;51.930;8.840;2024-02-26T02:18:06;75928.16;;;-145.72;100.00
15914;BME280;8055;51.930;8.840;2024-02-26T02:20:33;75921.94;;;-145.72;100.00
15914;BME280;8055;51.930;8.840;2024-02-26T02:22:59;75928.16;;;-145.72;100.00
15914;BME280;8055;51.930;8.840;2024-02-26T02:25:24;75921.94;;;-145.72;100.00
15914;BME280;8055;51.930;8.840;2024-02-26T02:27:50;75921.94;;;-145.72;100.00
15914;BME280;8055;51.930;8.840;2024-02-26T02:30:16;75924.03;;;-145.72;100.00
15914;BME280;8055;51.930;8.840;2024-02-26T02:32:41;75917.81;;;-145.72;100.00
15914;BME280;8055;51.930;8.840;2024-02-26T02:35:07;75917.81;;;-145.72;100.00
15914;BME280;8055;51.930;8.840;2024-02-26T02:37:33;75915.75;;;-145.72;100.00
15914;BME280;8055;51.930;8.840;2024-02-26T02:39:58;75926.09;;;-145.72;100.00
15914;BME280;8055;51.930;8.840;2024-02-26T02:42:24;75926.09;;;-145.72;100.00
15914;BME280;8055;51.930;8.840;2024-02-26T02:44:49;75919.88;;;-145.72;100.00
15914;BME280;8055;51.930;8.840;2024-02-26T02:47:15;75924.03;;;-145.72;100.00
15914;BME280;8055;51.930;8.840;2024-02-26T02:49:40;75926.09;;;-145.72;100.00
15914;BME280;8055;51.930;8.840;2024-02-26T02:52:05;75924.03;;;-145.72;100.00
15914;BME280;8055;51.930;8.840;2024-02-26T02:54:31;75917.81;;;-145.72;100.00
15914;BME280;8055;51.930;8.840;2024-02-26T02:56:56;75913.66;;;-145.72;100.00
15914;BME280;8055;51.930;8.840;2024-02-26T02:59:22;75909.53;;;-145.72;100.00
15914;BME280;8055;51.930;8.840;2024-02-26T03:01:47;75911.59;;;-145.72;100.00
15914;BME280;8055;51.930;8.840;2024-02-26T03:04:12;75909.53;;;-145.72;100.00
15914;BME280;8055;51.930;8.840;2024-02-26T03:06:38;75905.41;;;-145.72;100.00
15914;BME280;8055;51.930;8.840;2024-02-26T03:09:03;75909.53;;;-145.72;100.00
15914;BME280;8055;51.930;8.840;2024-02-26T03:11:28;75905.41;;;-145.72;100.00
15914;BME280;8055;51.930;8.840;2024-02-26T03:13:54;75903.31;;;-145.72;100.00
15914;BME280;8055;51.930;8.840;2024-02-26T03:16:20;75907.47;;;-145.72;100.00
15914;BME280;8055;51.930;8.840;2024-02-26T03:18:45;75899.19;;;-145.72;100.00
15914;BME280;8055;51.930;8.840;2024-02-26T03:21:11;75903.31;;;-145.72;100.00
15914;BME280;8055;51.930;8.840;2024-02-26T03:23:36;75899.19;;;-145.72;100.00
15914;BME280;8055;51.930;8.840;2024-02-26T03:26:05;75895.03;;;-145.72;100.00
15914;BME280;8055;51.930;8.840;2024-02-26T03:28:30;75895.03;;;-145.72;100.00
15914;BME280;8055;51.930;8.840;2024-02-26T03:30:58;75895.03;;;-145.72;100.00
15914;BME280;8055;51.930;8.840;2024-02-26T03:33:24;75886.78;;;-145.72;100.00
15914;BME280;8055;51.930;8.840;2024-02-26T03:35:49;75884.69;;;-145.72;100.00
15914;BME280;8055;51.930;8.840;2024-02-26T03:38:15;75882.63;;;-145.72;100.00
15914;BME280;8055;51.930;8.840;2024-02-26T03:40:40;75884.69;;;-145.72;100.00
15914;BME280;8055;51.930;8.840;2024-02-26T03:43:05;75878.50;;;-145.72;100.00
15914;BME280;8055;51.930;8.840;2024-02-26T03:45:32;75874.34;;;-145.72;100.00
15914;BME280;8055;51.930;8.840;2024-02-26T03:47:58;75880.56;;;-145.72;100.00
15914;BME280;8055;51.930;8.840;2024-02-26T03:50:23;75872.28;;;-145.72;100.00
15914;BME280;8055;51.930;8.840;2024-02-26T03:52:49;75874.34;;;-145.72;100.00
15914;BME280;8055;51.930;8.840;2024-02-26T03:55:14;75870.22;;;-145.72;100.00
15914;BME280;8055;51.930;8.840;2024-02-26T03:57:40;75870.22;;;-145.72;100.00
15914;BME280;8055;51.930;8.840;2024-02-26T04:00:06;75868.16;;;-145.72;100.00
15914;BME280;8055;51.930;8.840;2024-02-26T04:02:31;75868.16;;;-145.72;100.00
15914;BME280;8055;51.930;8.840;2024-02-26T04:04:57;75868.16;;;-145.72;100.00
15914;BME280;8055;51.930;8.840;2024-02-26T04:07:22;75874.34;;;-145.72;100.00
15914;BME280;8055;51.930;8.840;2024-02-26T04:09:47;75874.34;;;-145.72;100.00
15914;BME280;8055;51.930;8.840;2024-02-26T04:12:13;75872.28;;;-145.72;100.00
15914;BME280;8055;51.930;8.840;2024-02-26T04:14:38;75872.28;;;-145.72;100.00
15914;BME280;8055;51.930;8.840;2024-02-26T04:17:04;75868.16;;;-145.72;100.00
15914;BME280;8055;51.930;8.840;2024-02-26T04:19:29;75868.16;;;-145.72;100.00
15914;BME280;8055;51.930;8.840;2024-02-26T04:21:54;75868.16;;;-145.72;100.00
15914;BME280;8055;51.930;8.840;2024-02-26T04:24:20;75859.88;;;-145.72;100.00
15914;BME280;8055;51.930;8.840;2024-02-26T04:26:45;75864.00;;;-145.72;100.00
15914;BME280;8055;51.930;8.840;2024-02-26T04:29:10;75861.94;;;-145.72;100.00
15914;BME280;8055;51.930;8.840;2024-02-26T04:31:37;75859.88;;;-145.72;100.00
15914;BME280;8055;51.930;8.840;2024-02-26T04:34:02;75857.81;;;-145.72;100.00
15914;BME280;8055;51.930;8.840;2024-02-26T04:36:28;75866.06;;;-145.72;100.00
15914;BME280;8055;51.930;8.840;2024-02-26T04:38:53;75861.94;;;-145.72;100.00
15914;BME280;8055;51.930;8.840;2024-02-26T04:41:21;75861.94;;;-145.72;100.00
15914;BME280;8055;51.930;8.840;2024-02-26T04:43:47;75864.00;;;-145.72;100.00
15914;BME280;8055;51.930;8.840;2024-02-26T04:46:12;75868.16;;;-145.72;100.00
15914;BME280;8055;51.930;8.840;2024-02-26T04:48:37;75864.00;;;-145.72;100.00
15914;BME280;8055;51.930;8.840;2024-02-26T04:51:07;75861.94;;;-145.72;100.00
15914;BME280;8055;51.930;8.840;2024-02-26T04:53:32;75857.81;;;-145.72;100.00
15914;BME280;8055;51.930;8.840;2024-02-26T04:55:58;75861.94;;;-145.72;100.00
15914;BME280;8055;51.930;8.840;2024-02-26T04:58:23;75861.94;;;-145.72;100.00
15914;BME280;8055;51.930;8.840;2024-02-26T05:00:48;75864.00;;;-145.72;100.00
15914;BME280;8055;51.930;8.840;2024-02-26T05:03:14;75861.94;;;-145.72;100.00
15914;BME280;8055;51.930;8.840;2024-02-26T05:05:42;75866.06;;;-145.72;100.00
15914;BME280;8055;51.930;8.840;2024-02-26T05:08:07;75859.88;;;-145.72;100.00
15914;BME280;8055;51.930;8.840;2024-02-26T05:10:33;75861.94;;;-145.72;100.00
15914;BME280;8055;51.930;8.840;2024-02-26T05:12:59;75853.66;;;-145.72;100.00
15914;BME280;8055;51.930;8.840;2024-02-26T05:15:24;75857.81;;;-145.72;100.00
15914;BME280;8055;51.930;8.840;2024-02-26T05:17:49;75855.72;;;-145.72;100.00
15914;BME280;8055;51.930;8.840;2024-02-26T05:20:15;75853.66;;;-145.72;100.00
15914;BME280;8055;51.930;8.840;2024-02-26T05:22:40;75855.72;;;-145.72;100.00
15914;BME280;8055;51.930;8.840;2024-02-26T05:25:06;75851.59;;;-145.72;100.00
15914;BME280;8055;51.930;8.840;2024-02-26T05:27:31;75861.94;;;-145.72;100.00
15914;BME280;8055;51.930;8.840;2024-02-26T05:29:57;75853.66;;;-145.72;100.00
15914;BME280;8055;51.930;8.840;2024-02-26T05:32:22;75859.88;;;-145.72;100.00
15914;BME280;8055;51.930;8.840;2024-02-26T05:34:47;75857.81;;;-145.72;100.00
15914;BME280;8055;51.930;8.840;2024-02-26T05:37:13;75859.88;;;-145.72;100.00
15914;BME280;8055;51.930;8.840;2024-02-26T05:39:38;75855.72;;;-145.72;100.00
15914;BME280;8055;51.930;8.840;2024-02-26T05:42:04;75864.00;;;-145.72;100.00
15914;BME280;8055;51.930;8.840;2024-02-26T05:44:29;75861.94;;;-145.72;100.00
15914;BME280;8055;51.930;8.840;2024-02-26T05:46:55;75857.81;;;-145.72;100.00
15914;BME280;8055;51.930;8.840;2024-02-26T05:49:21;75866.06;;;-145.72;100.00
15914;BME280;8055;51.930;8.840;2024-02-26T05:51:47;75864.00;;;-145.72;100.00
15914;BME280;8055;51.930;8.840;2024-02-26T05:54:12;75866.06;;;-145.72;100.00
15914;BME280;8055;51.930;8.840;2024-02-26T05:56:38;75859.88;;;-145.72;100.00
15914;BME280;8055;51.930;8.840;2024-02-26T05:59:03;75857.81;;;-145.72;100.00
15914;BME280;8055;51.930;8.840;2024-02-26T06:01:29;75859.88;;;-145.72;100.00
15914;BME280;8055;51.930;8.840;2024-02-26T06:03:54;75861.94;;;-145.72;100.00
15914;BME280;8055;51.930;8.840;2024-02-26T06:06:19;75864.00;;;-145.72;100.00
15914;BME280;8055;51.930;8.840;2024-02-26T06:08:47;75870.22;;;-145.72;100.00
15914;BME280;8055;51.930;8.840;2024-02-26T06:11:12;75876.44;;;-145.72;100.00
15914;BME280;8055;51.930;8.840;2024-02-26T06:13:37;75870.22;;;-145.72;100.00
15914;BME280;8055;51.930;8.840;2024-02-26T06:16:03;75870.22;;;-145.72;100.00
15914;BME280;8055;51.930;8.840;2024-02-26T06:18:28;75876.44;;;-145.72;100.00
15914;BME280;8055;51.930;8.840;2024-02-26T06:20:54;75876.44;;;-145.72;100.00
15914;BME280;8055;51.930;8.840;2024-02-26T06:23:19;75874.34;;;-145.72;100.00
15914;BME280;8055;51.930;8.840;2024-02-26T06:25:45;75878.50;;;-145.72;100.00
15914;BME280;8055;51.930;8.840;2024-02-26T06:28:10;75884.69;;;-145.72;100.00
15914;BME280;8055;51.930;8.840;2024-02-26T06:30:36;75876.44;;;-145.72;100.00
15914;BME280;8055;51.930;8.840;2024-02-26T06:33:01;75872.28;;;-145.72;100.00
15914;BME280;8055;51.930;8.840;2024-02-26T06:35:28;75874.34;;;-145.72;100.00
15914;BME280;8055;51.930;8.840;2024-02-26T06:37:53;75874.34;;;-145.72;100.00
15914;BME280;8055;51.930;8.840;2024-02-26T06:40:19;75878.50;;;-145.72;100.00
15914;BME280;8055;51.930;8.840;2024-02-26T06:42:44;75872.28;;;-145.72;100.00
15914;BME280;8055;51.930;8.840;2024-02-26T06:45:10;75870.22;;;-145.72;100.00
15914;BME280;8055;51.930;8.840;2024-02-26T06:47:35;75866.06;;;-145.72;100.00
15914;BME280;8055;51.930;8.840;2024-02-26T06:50:01;75874.34;;;-145.72;100.00
15914;BME280;8055;51.930;8.840;2024-02-26T06:52:26;75872.28;;;-145.72;100.00
15914;BME280;8055;51.930;8.840;2024-02-26T06:54:52;75864.00;;;-145.72;100.00
15914;BME280;8055;51.930;8.840;2024-02-26T06:57:22;75866.06;;;-145.72;100.00
15914;BME280;8055;51.930;8.840;2024-02-26T06:59:47;75859.88;;;-145.72;100.00
15914;BME280;8055;51.930;8.840;2024-02-26T07:02:13;75864.00;;;-145.72;100.00
15914;BME280;8055;51.930;8.840;2024-02-26T07:04:39;75855.72;;;-145.72;100.00
15914;BME280;8055;51.930;8.840;2024-02-26T07:07:04;75853.66;;;-145.72;100.00
15914;BME280;8055;51.930;8.840;2024-02-26T07:09:30;75849.53;;;-145.72;100.00
15914;BME280;8055;51.930;8.840;2024-02-26T07:11:55;75841.25;;;-145.72;100.00
15914;BME280;8055;51.930;8.840;2024-02-26T07:14:20;75845.38;;;-145.72;100.00
15914;BME280;8055;51.930;8.840;2024-02-26T07:16:46;75837.09;;;-145.72;100.00
15914;BME280;8055;51.930;8.840;2024-02-26T07:19:11;75837.09;;;-145.72;100.00
15914;BME280;8055;51.930;8.840;2024-02-26T07:21:36;75826.75;;;-145.72;100.00
15914;BME280;8055;51.930;8.840;2024-02-26T07:24:02;75828.84;;;-145.72;100.00
15914;BME280;8055;51.930;8.840;2024-02-26T07:26:27;75830.91;;;-145.72;100.00
15914;BME280;8055;51.930;8.840;2024-02-26T07:28:55;75824.69;;;-145.72;100.00
15914;BME280;8055;51.930;8.840;2024-02-26T07:31:20;75822.63;;;-145.72;100.00
15914;BME280;8055;51.930;8.840;2024-02-26T07:33:46;75832.97;;;-145.72;100.00
15914;BME280;8055;51.930;8.840;2024-02-26T07:36:11;75820.56;;;-145.72;100.00
15914;BME280;8055;51.930;8.840;2024-02-26T07:38:37;75812.28;;;-145.72;100.00
15914;BME280;8055;51.930;8.840;2024-02-26T07:41:02;75812.28;;;-145.72;100.00
15914;BME280;8055;51.930;8.840;2024-02-26T07:43:28;75818.47;;;-145.72;100.00
15914;BME280;8055;51.930;8.840;2024-02-26T07:45:54;75812.28;;;-145.72;100.00
15914;BME280;8055;51.930;8.840;2024-02-26T07:48:19;75814.34;;;-145.72;100.00
15914;BME280;8055;51.930;8.840;2024-02-26T07:50:45;75808.13;;;-145.72;100.00
15914;BME280;8055;51.930;8.840;2024-02-26T07:53:10;75808.13;;;-145.72;100.00
15914;BME280;8055;51.930;8.840;2024-02-26T07:55:35;75806.06;;;-145.72;100.00
15914;BME280;8055;51.930;8.840;2024-02-26T07:58:01;75804.00;;;-145.72;100.00
15914;BME280;8055;51.930;8.840;2024-02-26T08:00:26;75797.78;;;-145.72;100.00
15914;BME280;8055;51.930;8.840;2024-02-26T08:02:51;75791.59;;;-145.72;100.00
15914;BME280;8055;51.930;8.840;2024-02-26T08:05:17;75797.78;;;-145.72;100.00
15914;BME280;8055;51.930;8.840;2024-02-26T08:07:42;75793.66;;;-145.72;100.00
15914;BME280;8055;51.930;8.840;2024-02-26T08:10:08;75791.59;;;-145.72;100.00
15914;BME280;8055;51.930;8.840;2024-02-26T08:12:33;75787.44;;;-145.72;100.00
15914;BME280;8055;51.930;8.840;2024-02-26T08:14:59;75787.44;;;-145.72;100.00
15914;BME280;8055;51.930;8.840;2024-02-26T08:17:25;75785.38;;;-145.72;100.00
15914;BME280;8055;51.930;8.840;2024-02-26T08:19:50;75777.09;;;-145.72;100.00
15914;BME280;8055;51.930;8.840;2024-02-26T08:22:16;75785.38;;;-145.72;100.00
15914;BME280;8055;51.930;8.840;2024-02-26T08:24:43;75779.16;;;-145.72;100.00
15914;BME280;8055;51.930;8.840;2024-02-26T08:27:08;75779.16;;;-145.72;100.00
15914;BME280;8055;51.930;8.840;2024-02-26T08:29:34;75775.03;;;-145.72;100.00
15914;BME280;8055;51.930;8.840;2024-02-26T08:31:59;75768.81;;;-145.72;100.00
15914;BME280;8055;51.930;8.840;2024-02-26T08:34:25;75770.88;;;-145.72;100.00
15914;BME280;8055;51.930;8.840;2024-02-26T08:36:51;75762.63;;;-145.72;100.00
15914;BME280;8055;51.930;8.840;2024-02-26T08:39:16;75758.47;;;-145.72;100.00
15914;BME280;8055;51.930;8.840;2024-02-26T08:41:43;75754.34;;;-145.72;100.00
15914;BME280;8055;51.930;8.840;2024-02-26T08:44:09;75756.41;;;-145.72;100.00
15914;BME280;8055;51.930;8.840;2024-02-26T08:46:34;75746.06;;;-145.72;100.00
15914;BME280;8055;51.930;8.840;2024-02-26T08:48:59;75750.19;;;-145.72;100.00
15914;BME280;8055;51.930;8.840;2024-02-26T08:51:25;75739.84;;;-145.72;100.00
15914;BME280;8055;51.930;8.840;2024-02-26T08:53:50;75735.72;;;-145.72;100.00
15914;BME280;8055;51.930;8.840;2024-02-26T08:56:16;75727.44;;;-145.72;100.00
15914;BME280;8055;51.930;8.840;2024-02-26T08:58:45;75723.31;;;-145.72;100.00
15914;BME280;8055;51.930;8.840;2024-02-26T09:01:13;75717.09;;;-145.72;100.00
15914;BME280;8055;51.930;8.840;2024-02-26T09:03:39;75702.59;;;-145.72;100.00
15914;BME280;8055;51.930;8.840;2024-02-26T09:06:05;75692.25;;;-145.72;100.00
15914;BME280;8055;51.930;8.840;2024-02-26T09:08:32;75684.00;;;-145.72;100.00
15914;BME280;8055;51.930;8.840;2024-02-26T09:10:58;75675.72;;;-145.72;100.00
15914;BME280;8055;51.930;8.840;2024-02-26T09:13:23;75663.28;;;-145.72;100.00
15914;BME280;8055;51.930;8.840;2024-02-26T09:15:48;75652.94;;;-145.72;100.00
15914;BME280;8055;51.930;8.840;2024-02-26T09:18:14;75640.53;;;-145.72;100.00
15914;BME280;8055;51.930;8.840;2024-02-26T09:20:40;75632.25;;;-145.72;100.00
15914;BME280;8055;51.930;8.840;2024-02-26T09:23:06;75628.13;;;-145.72;100.00
15914;BME280;8055;51.930;8.840;2024-02-26T09:25:31;75623.97;;;-145.72;99.64
15914;BME280;8055;51.930;8.840;2024-02-26T09:27:58;75603.28;;;-145.72;100.00
15914;BME280;8055;51.930;8.840;2024-02-26T09:30:24;75607.44;;;-145.72;97.16
15914;BME280;8055;51.930;8.840;2024-02-26T09:32:49;75605.34;;;-145.72;97.87
15914;BME280;8055;51.930;8.840;2024-02-26T09:35:15;75603.28;;;-145.72;97.63
15914;BME280;8055;51.930;8.840;2024-02-26T09:37:40;75611.56;;;-145.72;95.26
15914;BME280;8055;51.930;8.840;2024-02-26T09:40:06;75597.09;;;-145.72;96.61
15914;BME280;8055;51.930;8.840;2024-02-26T09:42:32;75595.00;;;-145.72;96.57
15914;BME280;8055;51.930;8.840;2024-02-26T09:45:00;75597.09;;;-145.72;96.40
15914;BME280;8055;51.930;8.840;2024-02-26T09:47:31;75597.09;;;-145.72;95.35
15914;BME280;8055;51.930;8.840;2024-02-26T09:49:58;75592.94;;;-145.72;95.60
15914;BME280;8055;51.930;8.840;2024-02-26T09:52:25;75597.09;;;-145.72;94.18
15914;BME280;8055;51.930;8.840;2024-02-26T09:54:50;75592.94;;;-145.72;95.05
15914;BME280;8055;51.930;8.840;2024-02-26T09:57:16;75590.88;;;-145.72;94.69
15914;BME280;8055;51.930;8.840;2024-02-26T09:59:43;75592.94;;;-145.72;94.73
15914;BME280;8055;51.930;8.840;2024-02-26T10:02:14;75584.66;;;-145.72;94.59
15914;BME280;8055;51.930;8.840;2024-02-26T10:04:40;75582.59;;;-145.72;95.33
15914;BME280;8055;51.930;8.840;2024-02-26T10:07:11;75572.25;;;-145.72;94.77
15914;BME280;8055;51.930;8.840;2024-02-26T10:09:37;75568.13;;;-145.72;94.77
15914;BME280;8055;51.930;8.840;2024-02-26T10:12:03;75570.19;;;-145.72;92.70
15914;BME280;8055;51.930;8.840;2024-02-26T10:14:30;75559.84;;;-145.72;93.43
15914;BME280;8055;51.930;8.840;2024-02-26T10:16:55;75553.63;;;-145.72;90.83
15914;BME280;8055;51.930;8.840;2024-02-26T10:19:28;75551.56;;;-145.72;90.20
15914;BME280;8055;51.930;8.840;2024-02-26T10:22:00;75543.28;;;-145.72;91.77
15914;BME280;8055;51.930;8.840;2024-02-26T10:24:27;75541.22;;;-145.72;92.13
15914;BME280;8055;51.930;8.840;2024-02-26T10:26:54;75543.28;;;-145.72;90.21
15914;BME280;8055;51.930;8.840;2024-02-26T10:29:20;75537.06;;;-145.72;91.08
15914;BME280;8055;51.930;8.840;2024-02-26T10:31:46;75530.88;;;-145.72;91.81
15914;BME280;8055;51.930;8.840;2024-02-26T10:34:11;75524.66;;;-145.72;89.81
15914;BME280;8055;51.930;8.840;2024-02-26T10:36:37;75516.38;;;-145.72;90.79
15914;BME280;8055;51.930;8.840;2024-02-26T10:39:04;75503.97;;;-145.72;88.89
15914;BME280;8055;51.930;8.840;2024-02-26T10:41:30;75491.56;;;-145.72;89.78
15914;BME280;8055;51.930;8.840;2024-02-26T10:43:57;75481.22;;;-145.72;90.48
15914;BME280;8055;51.930;8.840;2024-02-26T10:46:23;75475.00;;;-145.72;89.66
15914;BME280;8055;51.930;8.840;2024-02-26T10:48:52;75466.72;;;-145.72;89.42
15914;BME280;8055;51.930;8.840;2024-02-26T10:51:22;75475.00;;;-145.72;88.06
15914;BME280;8055;51.930;8.840;2024-02-26T10:53:51;75485.34;;;-145.72;89.38
15914;BME280;8055;51.930;8.840;2024-02-26T10:56:24;75485.34;;;-145.72;89.66
15914;BME280;8055;51.930;8.840;2024-02-26T10:58:51;75470.88;;;-145.72;88.08
15914;BME280;8055;51.930;8.840;2024-02-26T11:01:18;75460.53;;;-145.72;89.25
15914;BME280;8055;51.930;8.840;2024-02-26T11:03:45;75458.44;;;-145.72;84.89
15914;BME280;8055;51.930;8.840;2024-02-26T11:06:12;75452.25;;;-145.72;86.94
15914;BME280;8055;51.930;8.840;2024-02-26T11:08:38;75443.97;;;-145.72;87.61
15914;BME280;8055;51.930;8.840;2024-02-26T11:11:04;75446.03;;;-145.72;87.62
15914;BME280;8055;51.930;8.840;2024-02-26T11:13:30;75446.03;;;-145.72;85.73
15914;BME280;8055;51.930;8.840;2024-02-26T11:15:56;75448.09;;;-145.72;86.08
15914;BME280;8055;51.930;8.840;2024-02-26T11:18:26;75454.31;;;-145.72;86.28
15914;BME280;8055;51.930;8.840;2024-02-26T11:20:54;75462.59;;;-145.72;87.59
15914;BME280;8055;51.930;8.840;2024-02-26T11:23:22;75481.22;;;-145.72;87.53
15914;BME280;8055;51.930;8.840;2024-02-26T11:25:49;75489.50;;;-145.72;88.06
15914;BME280;8055;51.930;8.840;2024-02-26T11:28:17;75491.56;;;-145.72;88.87
15914;BME280;8055;51.930;8.840;2024-02-26T11:30:47;75493.63;;;-145.72;88.90
15914;BME280;8055;51.930;8.840;2024-02-26T11:33:14;75499.84;;;-145.72;89.89
15914;BME280;8055;51.930;8.840;2024-02-26T11:35:40;75503.97;;;-145.72;90.08
15914;BME280;8055;51.930;8.840;2024-02-26T11:38:05;75512.25;;;-145.72;89.17
15914;BME280;8055;51.930;8.840;2024-02-26T11:40:33;75518.44;;;-145.72;89.92
15914;BME280;8055;51.930;8.840;2024-02-26T11:42:58;75516.38;;;-145.72;90.22
15914;BME280;8055;51.930;8.840;2024-02-26T11:48:11;75518.44;;;-145.72;90.10
15914;BME280;8055;51.930;8.840;2024-02-26T11:50:41;75524.66;;;-145.72;90.00
15914;BME280;8055;51.930;8.840;2024-02-26T11:53:29;75518.44;;;-145.72;90.44
15914;BME280;8055;51.930;8.840;2024-02-26T11:59:09;75535.00;;;-145.72;91.79
15914;BME280;8055;51.930;8.840;2024-02-26T12:01:39;75530.88;;;-145.72;90.82
15914;BME280;8055;51.930;8.840;2024-02-26T12:04:06;75526.72;;;-145.72;90.96
15914;BME280;8055;51.930;8.840;2024-02-26T12:06:46;75528.81;;;-145.72;90.41
15914;BME280;8055;51.930;8.840;2024-02-26T12:09:12;75530.88;;;-145.72;89.85
15914;BME280;8055;51.930;8.840;2024-02-26T12:11:40;75530.88;;;-145.72;89.14
15914;BME280;8055;51.930;8.840;2024-02-26T12:14:08;75528.81;;;-145.72;89.52
15914;BME280;8055;51.930;8.840;2024-02-26T12:16:35;75526.72;;;-145.72;89.51
15914;BME280;8055;51.930;8.840;2024-02-26T12:19:04;75516.38;;;-145.72;88.39
15914;BME280;8055;51.930;8.840;2024-02-26T12:21:31;75522.59;;;-145.72;87.49
15914;BME280;8055;51.930;8.840;2024-02-26T12:24:07;75522.59;;;-145.72;87.43
15914;BME280;8055;51.930;8.840;2024-02-26T12:26:33;75520.53;;;-145.72;85.99
15914;BME280;8055;51.930;8.840;2024-02-26T12:28:58;75512.25;;;-145.72;87.79
15914;BME280;8055;51.930;8.840;2024-02-26T12:31:24;75510.19;;;-145.72;87.57
15914;BME280;8055;51.930;8.840;2024-02-26T12:33:49;75503.97;;;-145.72;86.47
15914;BME280;8055;51.930;8.840;2024-02-26T12:36:14;75497.75;;;-145.72;85.56
15914;BME280;8055;51.930;8.840;2024-02-26T12:38:40;75489.50;;;-145.72;85.31
15914;BME280;8055;51.930;8.840;2024-02-26T12:41:06;75489.50;;;-145.72;83.98
15914;BME280;8055;51.930;8.840;2024-02-26T12:43:31;75481.22;;;-145.72;84.46